sensor_id;sensor_type;location;lat;lon;timestamp;P1;durP1;ratioP1;P2;durP2;ratioP2
73331;SDS011;61560;33.718;73.040;2022-10-17T00:00:48;26.88;;;12.75;;
73331;SDS011;61560;33.718;73.040;2022-10-17T00:03:15;22.73;;;12.80;;
73331;SDS011;61560;33.718;73.040;2022-10-17T00:05:43;26.80;;;12.57;;
73331;SDS011;61560;33.718;73.040;2022-10-17T00:08:11;27.02;;;12.50;;
73331;SDS011;61560;33.718;73.040;2022-10-17T00:10:39;28.63;;;12.32;;
73331;SDS011;61560;33.718;73.040;2022-10-17T00:13:06;30.65;;;12.77;;
73331;SDS011;61560;33.718;73.040;2022-10-17T00:15:34;32.25;;;11.98;;
73331;SDS011;61560;33.718;73.040;2022-10-17T00:18:01;24.10;;;12.55;;
73331;SDS011;61560;33.718;73.040;2022-10-17T00:20:27;33.05;;;11.88;;
73331;SDS011;61560;33.718;73.040;2022-10-17T00:22:55;22.90;;;11.35;;
73331;SDS011;61560;33.718;73.040;2022-10-17T00:25:22;27.70;;;11.75;;
73331;SDS011;61560;33.718;73.040;2022-10-17T00:27:48;18.83;;;10.00;;
73331;SDS011;61560;33.718;73.040;2022-10-17T00:30:15;25.55;;;11.68;;
73331;SDS011;61560;33.718;73.040;2022-10-17T00:32:42;28.65;;;12.45;;
73331;SDS011;61560;33.718;73.040;2022-10-17T00:35:08;30.85;;;12.52;;
73331;SDS011;61560;33.718;73.040;2022-10-17T00:37:36;22.95;;;11.85;;
73331;SDS011;61560;33.718;73.040;2022-10-17T00:40:04;25.77;;;11.73;;
73331;SDS011;61560;33.718;73.040;2022-10-17T00:42:32;23.80;;;12.23;;
73331;SDS011;61560;33.718;73.040;2022-10-17T00:45:00;27.02;;;12.02;;
73331;SDS011;61560;33.718;73.040;2022-10-17T00:47:32;26.30;;;12.18;;
73331;SDS011;61560;33.718;73.040;2022-10-17T00:50:01;25.60;;;11.88;;
73331;SDS011;61560;33.718;73.040;2022-10-17T00:52:28;28.67;;;10.98;;
73331;SDS011;61560;33.718;73.040;2022-10-17T00:54:57;22.98;;;11.23;;
73331;SDS011;61560;33.718;73.040;2022-10-17T00:57:47;21.25;;;11.02;;
73331;SDS011;61560;33.718;73.040;2022-10-17T02:01:35;25.85;;;11.77;;
73331;SDS011;61560;33.718;73.040;2022-10-17T02:04:04;26.35;;;11.68;;
73331;SDS011;61560;33.718;73.040;2022-10-17T02:06:37;22.45;;;11.45;;
73331;SDS011;61560;33.718;73.040;2022-10-17T02:09:22;30.30;;;12.73;;
73331;SDS011;61560;33.718;73.040;2022-10-17T02:28:22;34.22;;;13.85;;
73331;SDS011;61560;33.718;73.040;2022-10-17T02:33:24;29.92;;;15.02;;
73331;SDS011;61560;33.718;73.040;2022-10-17T02:35:57;30.88;;;15.50;;
73331;SDS011;61560;33.718;73.040;2022-10-17T02:38:28;33.45;;;15.52;;
73331;SDS011;61560;33.718;73.040;2022-10-17T02:40:56;40.97;;;17.30;;
73331;SDS011;61560;33.718;73.040;2022-10-17T02:43:24;30.20;;;14.55;;
73331;SDS011;61560;33.718;73.040;2022-10-17T02:45:51;37.60;;;15.40;;
73331;SDS011;61560;33.718;73.040;2022-10-17T02:48:23;43.13;;;24.05;;
73331;SDS011;61560;33.718;73.040;2022-10-17T02:56:31;30.92;;;14.73;;
73331;SDS011;61560;33.718;73.040;2022-10-17T02:59:02;28.65;;;15.10;;
73331;SDS011;61560;33.718;73.040;2022-10-17T03:01:34;32.63;;;14.90;;
73331;SDS011;61560;33.718;73.040;2022-10-17T03:04:06;39.55;;;16.42;;
73331;SDS011;61560;33.718;73.040;2022-10-17T03:06:35;34.50;;;15.93;;
73331;SDS011;61560;33.718;73.040;2022-10-17T03:09:02;28.90;;;15.40;;
73331;SDS011;61560;33.718;73.040;2022-10-17T03:11:29;31.83;;;15.38;;
73331;SDS011;61560;33.718;73.040;2022-10-17T03:13:56;32.67;;;16.40;;
73331;SDS011;61560;33.718;73.040;2022-10-17T03:16:23;34.13;;;17.05;;
73331;SDS011;61560;33.718;73.040;2022-10-17T03:18:49;35.47;;;16.98;;
73331;SDS011;61560;33.718;73.040;2022-10-17T03:21:16;38.78;;;17.70;;
73331;SDS011;61560;33.718;73.040;2022-10-17T03:23:43;34.80;;;18.17;;
73331;SDS011;61560;33.718;73.040;2022-10-17T03:26:11;37.70;;;18.50;;
73331;SDS011;61560;33.718;73.040;2022-10-17T03:28:38;37.67;;;18.35;;
73331;SDS011;61560;33.718;73.040;2022-10-17T03:31:07;31.40;;;16.85;;
73331;SDS011;61560;33.718;73.040;2022-10-17T03:33:39;34.25;;;17.15;;
73331;SDS011;61560;33.718;73.040;2022-10-17T03:36:07;29.60;;;16.88;;
73331;SDS011;61560;33.718;73.040;2022-10-17T03:38:39;37.75;;;17.67;;
73331;SDS011;61560;33.718;73.040;2022-10-17T03:41:06;31.13;;;17.83;;
73331;SDS011;61560;33.718;73.040;2022-10-17T03:43:38;36.05;;;18.10;;
73331;SDS011;61560;33.718;73.040;2022-10-17T03:46:06;32.20;;;17.40;;
73331;SDS011;61560;33.718;73.040;2022-10-17T03:48:34;41.75;;;19.00;;
73331;SDS011;61560;33.718;73.040;2022-10-17T03:51:06;35.53;;;18.30;;
73331;SDS011;61560;33.718;73.040;2022-10-17T03:53:42;34.28;;;17.20;;
73331;SDS011;61560;33.718;73.040;2022-10-17T03:56:16;32.65;;;17.75;;
73331;SDS011;61560;33.718;73.040;2022-10-17T03:58:53;37.78;;;17.73;;
73331;SDS011;61560;33.718;73.040;2022-10-17T04:01:20;31.55;;;17.98;;
73331;SDS011;61560;33.718;73.040;2022-10-17T04:03:51;33.15;;;18.85;;
73331;SDS011;61560;33.718;73.040;2022-10-17T04:06:21;29.05;;;17.92;;
73331;SDS011;61560;33.718;73.040;2022-10-17T04:08:50;28.52;;;16.63;;
73331;SDS011;61560;33.718;73.040;2022-10-17T04:11:23;30.33;;;17.42;;
73331;SDS011;61560;33.718;73.040;2022-10-17T04:13:52;35.72;;;17.85;;
73331;SDS011;61560;33.718;73.040;2022-10-17T04:16:23;32.42;;;17.42;;
73331;SDS011;61560;33.718;73.040;2022-10-17T04:19:00;34.88;;;18.95;;
73331;SDS011;61560;33.718;73.040;2022-10-17T04:21:32;32.10;;;17.70;;
73331;SDS011;61560;33.718;73.040;2022-10-17T04:24:04;31.63;;;17.85;;
73331;SDS011;61560;33.718;73.040;2022-10-17T04:26:42;33.22;;;17.58;;
73331;SDS011;61560;33.718;73.040;2022-10-17T04:29:09;27.48;;;15.82;;
73331;SDS011;61560;33.718;73.040;2022-10-17T04:31:37;28.33;;;15.93;;
73331;SDS011;61560;33.718;73.040;2022-10-17T04:34:13;28.77;;;16.35;;
73331;SDS011;61560;33.718;73.040;2022-10-17T04:36:49;28.48;;;15.30;;
73331;SDS011;61560;33.718;73.040;2022-10-17T04:39:17;29.00;;;16.30;;
73331;SDS011;61560;33.718;73.040;2022-10-17T04:41:45;26.27;;;16.45;;
73331;SDS011;61560;33.718;73.040;2022-10-17T04:44:12;31.92;;;17.40;;
73331;SDS011;61560;33.718;73.040;2022-10-17T04:46:44;31.10;;;16.80;;
73331;SDS011;61560;33.718;73.040;2022-10-17T04:49:14;25.67;;;16.58;;
73331;SDS011;61560;33.718;73.040;2022-10-17T04:51:43;26.77;;;16.42;;
73331;SDS011;61560;33.718;73.040;2022-10-17T04:54:32;27.48;;;17.33;;
73331;SDS011;61560;33.718;73.040;2022-10-17T04:57:05;32.65;;;17.50;;
73331;SDS011;61560;33.718;73.040;2022-10-17T04:59:32;28.20;;;17.27;;
73331;SDS011;61560;33.718;73.040;2022-10-17T05:02:37;27.88;;;17.38;;
73331;SDS011;61560;33.718;73.040;2022-10-17T05:05:06;30.60;;;17.92;;
73331;SDS011;61560;33.718;73.040;2022-10-17T05:07:33;29.48;;;19.08;;
73331;SDS011;61560;33.718;73.040;2022-10-17T05:10:09;33.72;;;20.27;;
73331;SDS011;61560;33.718;73.040;2022-10-17T05:15:05;37.78;;;19.92;;
73331;SDS011;61560;33.718;73.040;2022-10-17T05:17:33;44.72;;;20.70;;
73331;SDS011;61560;33.718;73.040;2022-10-17T05:19:59;44.60;;;19.35;;
73331;SDS011;61560;33.718;73.040;2022-10-17T05:22:29;42.13;;;19.92;;
73331;SDS011;61560;33.718;73.040;2022-10-17T05:24:56;39.97;;;19.45;;
73331;SDS011;61560;33.718;73.040;2022-10-17T05:27:23;34.42;;;19.65;;
73331;SDS011;61560;33.718;73.040;2022-10-17T05:29:50;40.95;;;19.85;;
73331;SDS011;61560;33.718;73.040;2022-10-17T05:32:29;39.17;;;18.80;;
73331;SDS011;61560;33.718;73.040;2022-10-17T05:34:57;33.50;;;18.52;;
73331;SDS011;61560;33.718;73.040;2022-10-17T05:37:24;33.05;;;17.90;;
73331;SDS011;61560;33.718;73.040;2022-10-17T05:39:54;32.22;;;18.75;;
73331;SDS011;61560;33.718;73.040;2022-10-17T05:42:20;37.83;;;19.30;;
73331;SDS011;61560;33.718;73.040;2022-10-17T05:44:47;41.95;;;19.42;;
73331;SDS011;61560;33.718;73.040;2022-10-17T05:47:17;38.17;;;18.58;;
73331;SDS011;61560;33.718;73.040;2022-10-17T05:49:43;38.63;;;18.73;;
73331;SDS011;61560;33.718;73.040;2022-10-17T05:52:10;39.65;;;18.48;;
73331;SDS011;61560;33.718;73.040;2022-10-17T05:54:52;32.53;;;17.40;;
73331;SDS011;61560;33.718;73.040;2022-10-17T05:57:19;37.15;;;18.65;;
73331;SDS011;61560;33.718;73.040;2022-10-17T05:59:46;35.95;;;17.15;;
73331;SDS011;61560;33.718;73.040;2022-10-17T06:04:47;42.58;;;19.08;;
73331;SDS011;61560;33.718;73.040;2022-10-17T06:07:15;46.85;;;19.02;;
73331;SDS011;61560;33.718;73.040;2022-10-17T06:09:43;41.08;;;18.90;;
73331;SDS011;61560;33.718;73.040;2022-10-17T06:12:10;43.72;;;18.08;;
73331;SDS011;61560;33.718;73.040;2022-10-17T06:14:36;41.80;;;19.30;;
73331;SDS011;61560;33.718;73.040;2022-10-17T06:17:04;43.90;;;18.75;;
73331;SDS011;61560;33.718;73.040;2022-10-17T06:19:33;41.42;;;19.80;;
73331;SDS011;61560;33.718;73.040;2022-10-17T06:22:01;44.05;;;20.10;;
73331;SDS011;61560;33.718;73.040;2022-10-17T06:24:29;45.80;;;20.10;;
73331;SDS011;61560;33.718;73.040;2022-10-17T06:26:55;50.92;;;20.98;;
73331;SDS011;61560;33.718;73.040;2022-10-17T06:29:24;44.45;;;19.83;;
73331;SDS011;61560;33.718;73.040;2022-10-17T06:31:51;48.22;;;20.10;;
73331;SDS011;61560;33.718;73.040;2022-10-17T06:34:18;48.17;;;20.65;;
73331;SDS011;61560;33.718;73.040;2022-10-17T06:36:45;41.92;;;20.60;;
73331;SDS011;61560;33.718;73.040;2022-10-17T06:39:13;46.20;;;21.25;;
73331;SDS011;61560;33.718;73.040;2022-10-17T06:42:01;43.75;;;20.70;;
73331;SDS011;61560;33.718;73.040;2022-10-17T06:44:57;48.40;;;21.38;;
73331;SDS011;61560;33.718;73.040;2022-10-17T06:47:41;48.00;;;20.55;;
73331;SDS011;61560;33.718;73.040;2022-10-17T06:50:26;49.13;;;22.38;;
73331;SDS011;61560;33.718;73.040;2022-10-17T06:53:23;46.42;;;21.02;;
73331;SDS011;61560;33.718;73.040;2022-10-17T06:56:24;53.50;;;22.73;;
73331;SDS011;61560;33.718;73.040;2022-10-17T06:59:10;46.20;;;22.13;;
73331;SDS011;61560;33.718;73.040;2022-10-17T07:01:46;51.03;;;22.13;;
73331;SDS011;61560;33.718;73.040;2022-10-17T07:04:14;46.30;;;21.23;;
73331;SDS011;61560;33.718;73.040;2022-10-17T07:06:40;42.45;;;19.77;;
73331;SDS011;61560;33.718;73.040;2022-10-17T07:09:15;53.47;;;21.35;;
73331;SDS011;61560;33.718;73.040;2022-10-17T07:11:43;45.65;;;21.92;;
73331;SDS011;61560;33.718;73.040;2022-10-17T07:14:10;46.30;;;22.27;;
73331;SDS011;61560;33.718;73.040;2022-10-17T07:16:37;66.22;;;21.27;;
73331;SDS011;61560;33.718;73.040;2022-10-17T07:19:11;51.30;;;21.88;;
73331;SDS011;61560;33.718;73.040;2022-10-17T07:21:38;51.72;;;21.55;;
73331;SDS011;61560;33.718;73.040;2022-10-17T07:24:06;50.05;;;19.63;;
73331;SDS011;61560;33.718;73.040;2022-10-17T07:26:33;46.50;;;21.48;;
73331;SDS011;61560;33.718;73.040;2022-10-17T07:29:00;47.55;;;22.00;;
73331;SDS011;61560;33.718;73.040;2022-10-17T07:31:43;70.70;;;24.15;;
73331;SDS011;61560;33.718;73.040;2022-10-17T07:34:13;55.05;;;22.33;;
73331;SDS011;61560;33.718;73.040;2022-10-17T07:36:40;52.63;;;22.55;;
73331;SDS011;61560;33.718;73.040;2022-10-17T07:39:07;54.83;;;22.98;;
73331;SDS011;61560;33.718;73.040;2022-10-17T07:41:36;50.13;;;23.35;;
73331;SDS011;61560;33.718;73.040;2022-10-17T07:44:03;46.10;;;23.63;;
73331;SDS011;61560;33.718;73.040;2022-10-17T07:46:34;50.22;;;23.65;;
73331;SDS011;61560;33.718;73.040;2022-10-17T07:49:01;59.08;;;23.50;;
73331;SDS011;61560;33.718;73.040;2022-10-17T07:51:28;44.40;;;22.67;;
73331;SDS011;61560;33.718;73.040;2022-10-17T07:53:54;48.28;;;21.58;;
73331;SDS011;61560;33.718;73.040;2022-10-17T07:56:21;45.72;;;21.92;;
73331;SDS011;61560;33.718;73.040;2022-10-17T07:58:50;45.55;;;23.10;;
73331;SDS011;61560;33.718;73.040;2022-10-17T08:01:17;49.55;;;22.88;;
73331;SDS011;61560;33.718;73.040;2022-10-17T08:03:44;38.85;;;20.75;;
73331;SDS011;61560;33.718;73.040;2022-10-17T08:06:13;43.35;;;20.88;;
73331;SDS011;61560;33.718;73.040;2022-10-17T08:08:40;48.03;;;20.80;;
73331;SDS011;61560;33.718;73.040;2022-10-17T08:11:08;43.53;;;21.92;;
73331;SDS011;61560;33.718;73.040;2022-10-17T08:13:38;41.55;;;19.90;;
73331;SDS011;61560;33.718;73.040;2022-10-17T08:16:07;41.22;;;19.55;;
73331;SDS011;61560;33.718;73.040;2022-10-17T08:18:36;35.95;;;18.52;;
73331;SDS011;61560;33.718;73.040;2022-10-17T08:21:05;35.85;;;17.73;;
73331;SDS011;61560;33.718;73.040;2022-10-17T08:23:35;34.92;;;18.33;;
73331;SDS011;61560;33.718;73.040;2022-10-17T08:26:03;33.58;;;18.02;;
73331;SDS011;61560;33.718;73.040;2022-10-17T08:28:36;33.77;;;18.43;;
73331;SDS011;61560;33.718;73.040;2022-10-17T08:31:11;44.27;;;18.60;;
73331;SDS011;61560;33.718;73.040;2022-10-17T08:33:40;42.45;;;18.85;;
73331;SDS011;61560;33.718;73.040;2022-10-17T08:36:07;40.17;;;19.20;;
73331;SDS011;61560;33.718;73.040;2022-10-17T08:38:36;40.25;;;17.95;;
73331;SDS011;61560;33.718;73.040;2022-10-17T08:41:12;40.97;;;19.05;;
73331;SDS011;61560;33.718;73.040;2022-10-17T08:46:41;51.95;;;23.90;;
73331;SDS011;61560;33.718;73.040;2022-10-17T08:49:15;42.63;;;20.67;;
73331;SDS011;61560;33.718;73.040;2022-10-17T08:51:52;51.10;;;22.45;;
73331;SDS011;61560;33.718;73.040;2022-10-17T08:54:45;40.60;;;20.35;;
73331;SDS011;61560;33.718;73.040;2022-10-17T08:57:13;38.65;;;20.30;;
73331;SDS011;61560;33.718;73.040;2022-10-17T08:59:42;42.53;;;20.55;;
73331;SDS011;61560;33.718;73.040;2022-10-17T09:10:34;35.92;;;18.77;;
73331;SDS011;61560;33.718;73.040;2022-10-17T09:18:40;36.33;;;17.27;;
73331;SDS011;61560;33.718;73.040;2022-10-17T09:21:22;34.05;;;17.30;;
73331;SDS011;61560;33.718;73.040;2022-10-17T09:23:59;32.03;;;18.40;;
73331;SDS011;61560;33.718;73.040;2022-10-17T09:26:30;36.13;;;18.88;;
73331;SDS011;61560;33.718;73.040;2022-10-17T09:28:58;39.70;;;18.58;;
73331;SDS011;61560;33.718;73.040;2022-10-17T09:31:29;41.83;;;18.90;;
73331;SDS011;61560;33.718;73.040;2022-10-17T09:34:01;29.60;;;15.43;;
73331;SDS011;61560;33.718;73.040;2022-10-17T09:36:28;32.97;;;15.98;;
73331;SDS011;61560;33.718;73.040;2022-10-17T09:38:59;37.45;;;16.20;;
73331;SDS011;61560;33.718;73.040;2022-10-17T09:41:43;35.22;;;17.20;;
73331;SDS011;61560;33.718;73.040;2022-10-17T09:46:55;30.23;;;15.18;;
73331;SDS011;61560;33.718;73.040;2022-10-17T09:49:34;46.80;;;17.05;;
73331;SDS011;61560;33.718;73.040;2022-10-17T09:52:04;28.38;;;14.55;;
73331;SDS011;61560;33.718;73.040;2022-10-17T09:57:19;35.35;;;17.92;;
73331;SDS011;61560;33.718;73.040;2022-10-17T09:59:47;35.08;;;16.35;;
73331;SDS011;61560;33.718;73.040;2022-10-17T10:04:57;38.95;;;16.10;;
73331;SDS011;61560;33.718;73.040;2022-10-17T10:07:30;40.25;;;17.73;;
73331;SDS011;61560;33.718;73.040;2022-10-17T10:09:59;32.58;;;16.50;;
73331;SDS011;61560;33.718;73.040;2022-10-17T10:12:32;31.83;;;16.02;;
73331;SDS011;61560;33.718;73.040;2022-10-17T10:15:01;32.92;;;15.90;;
73331;SDS011;61560;33.718;73.040;2022-10-17T10:20:35;38.00;;;16.25;;
73331;SDS011;61560;33.718;73.040;2022-10-17T10:23:12;33.70;;;15.88;;
73331;SDS011;61560;33.718;73.040;2022-10-17T10:28:25;30.08;;;15.43;;
73331;SDS011;61560;33.718;73.040;2022-10-17T10:30:56;30.67;;;13.82;;
73331;SDS011;61560;33.718;73.040;2022-10-17T10:33:27;31.20;;;14.93;;
73331;SDS011;61560;33.718;73.040;2022-10-17T10:36:00;31.73;;;15.18;;
73331;SDS011;61560;33.718;73.040;2022-10-17T10:38:31;33.90;;;15.13;;
73331;SDS011;61560;33.718;73.040;2022-10-17T10:41:04;29.58;;;15.18;;
73331;SDS011;61560;33.718;73.040;2022-10-17T10:46:15;22.75;;;12.98;;
73331;SDS011;61560;33.718;73.040;2022-10-17T10:48:57;24.15;;;13.73;;
73331;SDS011;61560;33.718;73.040;2022-10-17T10:51:37;34.25;;;14.52;;
73331;SDS011;61560;33.718;73.040;2022-10-17T10:56:47;28.30;;;14.05;;
73331;SDS011;61560;33.718;73.040;2022-10-17T10:59:34;24.67;;;13.30;;
73331;SDS011;61560;33.718;73.040;2022-10-17T11:04:55;33.45;;;14.15;;
73331;SDS011;61560;33.718;73.040;2022-10-17T11:07:33;25.40;;;13.98;;
73331;SDS011;61560;33.718;73.040;2022-10-17T11:13:18;29.15;;;12.77;;
73331;SDS011;61560;33.718;73.040;2022-10-17T11:16:36;21.88;;;12.77;;
73331;SDS011;61560;33.718;73.040;2022-10-17T11:24:10;29.13;;;15.60;;
73331;SDS011;61560;33.718;73.040;2022-10-17T11:27:00;31.17;;;16.30;;
73331;SDS011;61560;33.718;73.040;2022-10-17T11:29:33;42.05;;;17.98;;
73331;SDS011;61560;33.718;73.040;2022-10-17T11:32:12;42.38;;;17.85;;
73331;SDS011;61560;33.718;73.040;2022-10-17T11:40:57;35.88;;;17.30;;
73331;SDS011;61560;33.718;73.040;2022-10-17T11:43:29;34.55;;;17.40;;
73331;SDS011;61560;33.718;73.040;2022-10-17T11:46:04;34.90;;;16.65;;
73331;SDS011;61560;33.718;73.040;2022-10-17T11:55:09;49.55;;;21.15;;
73331;SDS011;61560;33.718;73.040;2022-10-17T12:00:57;42.38;;;20.05;;
73331;SDS011;61560;33.718;73.040;2022-10-17T12:11:57;38.20;;;18.88;;
73331;SDS011;61560;33.718;73.040;2022-10-17T12:17:02;35.40;;;16.55;;
73331;SDS011;61560;33.718;73.040;2022-10-17T12:19:49;41.30;;;16.80;;
73331;SDS011;61560;33.718;73.040;2022-10-17T12:22:17;36.30;;;15.70;;
73331;SDS011;61560;33.718;73.040;2022-10-17T12:24:55;40.47;;;16.23;;
73331;SDS011;61560;33.718;73.040;2022-10-17T12:27:40;42.55;;;17.00;;
73331;SDS011;61560;33.718;73.040;2022-10-17T12:32:38;99.22;;;39.80;;
73331;SDS011;61560;33.718;73.040;2022-10-17T12:35:22;89.68;;;38.05;;
73331;SDS011;61560;33.718;73.040;2022-10-17T12:45:48;53.90;;;26.98;;
73331;SDS011;61560;33.718;73.040;2022-10-17T12:53:48;42.65;;;18.63;;
73331;SDS011;61560;33.718;73.040;2022-10-17T12:56:39;48.78;;;20.17;;
73331;SDS011;61560;33.718;73.040;2022-10-17T12:59:13;42.50;;;18.38;;
73331;SDS011;61560;33.718;73.040;2022-10-17T13:01:44;35.30;;;15.70;;
73331;SDS011;61560;33.718;73.040;2022-10-17T13:04:13;40.75;;;15.98;;
73331;SDS011;61560;33.718;73.040;2022-10-17T13:06:44;36.13;;;16.02;;
73331;SDS011;61560;33.718;73.040;2022-10-17T13:12:02;46.58;;;20.20;;
73331;SDS011;61560;33.718;73.040;2022-10-17T13:14:36;56.15;;;20.58;;
73331;SDS011;61560;33.718;73.040;2022-10-17T13:17:19;45.67;;;20.13;;
73331;SDS011;61560;33.718;73.040;2022-10-17T13:19:54;38.20;;;17.15;;
73331;SDS011;61560;33.718;73.040;2022-10-17T13:22:25;35.88;;;15.18;;
73331;SDS011;61560;33.718;73.040;2022-10-17T13:25:06;35.72;;;15.23;;
73331;SDS011;61560;33.718;73.040;2022-10-17T13:27:38;36.70;;;15.55;;
73331;SDS011;61560;33.718;73.040;2022-10-17T13:30:22;33.90;;;14.40;;
73331;SDS011;61560;33.718;73.040;2022-10-17T13:32:53;29.08;;;12.70;;
73331;SDS011;61560;33.718;73.040;2022-10-17T13:35:24;33.47;;;14.10;;
73331;SDS011;61560;33.718;73.040;2022-10-17T13:38:04;29.23;;;13.93;;
73331;SDS011;61560;33.718;73.040;2022-10-17T13:40:41;28.87;;;13.30;;
73331;SDS011;61560;33.718;73.040;2022-10-17T13:43:21;33.25;;;13.18;;
73331;SDS011;61560;33.718;73.040;2022-10-17T13:45:55;25.27;;;12.52;;
73331;SDS011;61560;33.718;73.040;2022-10-17T13:48:27;28.85;;;12.63;;
73331;SDS011;61560;33.718;73.040;2022-10-17T13:50:57;29.00;;;12.13;;
73331;SDS011;61560;33.718;73.040;2022-10-17T13:53:32;37.05;;;14.77;;
73331;SDS011;61560;33.718;73.040;2022-10-17T13:58:30;29.38;;;14.55;;
73331;SDS011;61560;33.718;73.040;2022-10-17T14:01:10;34.47;;;14.02;;
73331;SDS011;61560;33.718;73.040;2022-10-17T14:03:42;30.83;;;14.82;;
73331;SDS011;61560;33.718;73.040;2022-10-17T14:06:11;41.63;;;16.42;;
73331;SDS011;61560;33.718;73.040;2022-10-17T14:08:44;35.95;;;15.68;;
73331;SDS011;61560;33.718;73.040;2022-10-17T14:14:21;42.50;;;18.40;;
73331;SDS011;61560;33.718;73.040;2022-10-17T14:16:50;34.35;;;17.67;;
73331;SDS011;61560;33.718;73.040;2022-10-17T14:19:27;46.88;;;17.35;;
73331;SDS011;61560;33.718;73.040;2022-10-17T14:28:11;32.58;;;13.93;;
73331;SDS011;61560;33.718;73.040;2022-10-17T14:33:06;42.28;;;15.50;;
73331;SDS011;61560;33.718;73.040;2022-10-17T14:35:47;34.05;;;15.02;;
73331;SDS011;61560;33.718;73.040;2022-10-17T14:38:18;34.00;;;14.88;;
73331;SDS011;61560;33.718;73.040;2022-10-17T14:40:49;35.30;;;14.50;;
73331;SDS011;61560;33.718;73.040;2022-10-17T14:43:20;32.85;;;14.32;;
73331;SDS011;61560;33.718;73.040;2022-10-17T14:45:51;27.92;;;13.80;;
73331;SDS011;61560;33.718;73.040;2022-10-17T14:48:21;28.75;;;13.15;;
73331;SDS011;61560;33.718;73.040;2022-10-17T14:53:43;31.48;;;12.95;;
73331;SDS011;61560;33.718;73.040;2022-10-17T14:56:35;25.83;;;12.65;;
73331;SDS011;61560;33.718;73.040;2022-10-17T14:59:06;25.67;;;12.23;;
73331;SDS011;61560;33.718;73.040;2022-10-17T15:01:35;27.90;;;12.65;;
73331;SDS011;61560;33.718;73.040;2022-10-17T15:04:02;28.75;;;13.07;;
73331;SDS011;61560;33.718;73.040;2022-10-17T15:06:30;27.98;;;12.88;;
73331;SDS011;61560;33.718;73.040;2022-10-17T15:08:59;25.75;;;12.48;;
73331;SDS011;61560;33.718;73.040;2022-10-17T15:11:27;30.52;;;13.40;;
73331;SDS011;61560;33.718;73.040;2022-10-17T15:13:53;26.75;;;13.32;;
73331;SDS011;61560;33.718;73.040;2022-10-17T15:16:21;26.85;;;12.50;;
73331;SDS011;61560;33.718;73.040;2022-10-17T15:18:52;24.83;;;13.63;;
73331;SDS011;61560;33.718;73.040;2022-10-17T15:21:20;31.33;;;13.02;;
73331;SDS011;61560;33.718;73.040;2022-10-17T15:23:48;28.90;;;13.55;;
73331;SDS011;61560;33.718;73.040;2022-10-17T15:28:49;31.77;;;14.02;;
73331;SDS011;61560;33.718;73.040;2022-10-17T15:31:16;31.88;;;13.85;;
73331;SDS011;61560;33.718;73.040;2022-10-17T15:33:45;30.95;;;14.93;;
73331;SDS011;61560;33.718;73.040;2022-10-17T15:38:54;28.95;;;13.48;;
73331;SDS011;61560;33.718;73.040;2022-10-17T15:41:23;28.00;;;14.05;;
73331;SDS011;61560;33.718;73.040;2022-10-17T15:43:51;31.98;;;13.68;;
73331;SDS011;61560;33.718;73.040;2022-10-17T15:46:19;29.50;;;13.73;;
73331;SDS011;61560;33.718;73.040;2022-10-17T15:48:51;30.83;;;13.23;;
73331;SDS011;61560;33.718;73.040;2022-10-17T15:51:18;31.33;;;14.00;;
73331;SDS011;61560;33.718;73.040;2022-10-17T15:53:46;27.15;;;13.50;;
73331;SDS011;61560;33.718;73.040;2022-10-17T15:56:28;28.98;;;14.32;;
73331;SDS011;61560;33.718;73.040;2022-10-17T15:58:56;30.65;;;13.65;;
73331;SDS011;61560;33.718;73.040;2022-10-17T16:01:24;32.78;;;14.20;;
73331;SDS011;61560;33.718;73.040;2022-10-17T16:03:53;32.10;;;15.07;;
73331;SDS011;61560;33.718;73.040;2022-10-17T16:06:20;30.13;;;14.57;;
73331;SDS011;61560;33.718;73.040;2022-10-17T16:08:50;36.30;;;15.55;;
73331;SDS011;61560;33.718;73.040;2022-10-17T16:11:36;36.80;;;15.93;;
73331;SDS011;61560;33.718;73.040;2022-10-17T16:14:05;32.50;;;15.65;;
73331;SDS011;61560;33.718;73.040;2022-10-17T16:16:35;35.08;;;16.75;;
73331;SDS011;61560;33.718;73.040;2022-10-17T16:19:02;32.85;;;15.38;;
73331;SDS011;61560;33.718;73.040;2022-10-17T16:21:32;36.20;;;15.63;;
73331;SDS011;61560;33.718;73.040;2022-10-17T16:24:00;33.25;;;14.07;;
73331;SDS011;61560;33.718;73.040;2022-10-17T16:26:28;34.75;;;14.82;;
73331;SDS011;61560;33.718;73.040;2022-10-17T16:28:54;37.55;;;15.50;;
73331;SDS011;61560;33.718;73.040;2022-10-17T16:31:24;36.95;;;15.77;;
73331;SDS011;61560;33.718;73.040;2022-10-17T16:33:54;42.35;;;17.20;;
73331;SDS011;61560;33.718;73.040;2022-10-17T16:36:22;43.60;;;16.70;;
73331;SDS011;61560;33.718;73.040;2022-10-17T16:38:49;38.45;;;16.67;;
73331;SDS011;61560;33.718;73.040;2022-10-17T16:41:29;39.40;;;16.90;;
73331;SDS011;61560;33.718;73.040;2022-10-17T16:43:58;34.80;;;15.85;;
73331;SDS011;61560;33.718;73.040;2022-10-17T16:46:28;43.65;;;15.63;;
73331;SDS011;61560;33.718;73.040;2022-10-17T16:48:56;35.97;;;15.57;;
73331;SDS011;61560;33.718;73.040;2022-10-17T16:51:24;40.05;;;17.13;;
73331;SDS011;61560;33.718;73.040;2022-10-17T16:53:51;43.78;;;16.83;;
73331;SDS011;61560;33.718;73.040;2022-10-17T16:56:20;38.58;;;16.67;;
73331;SDS011;61560;33.718;73.040;2022-10-17T16:58:48;32.33;;;15.60;;
73331;SDS011;61560;33.718;73.040;2022-10-17T17:01:17;34.47;;;15.70;;
73331;SDS011;61560;33.718;73.040;2022-10-17T17:03:46;34.20;;;14.82;;
73331;SDS011;61560;33.718;73.040;2022-10-17T17:06:17;33.25;;;15.02;;
73331;SDS011;61560;33.718;73.040;2022-10-17T17:08:45;32.03;;;14.73;;
73331;SDS011;61560;33.718;73.040;2022-10-17T17:11:14;33.08;;;15.00;;
73331;SDS011;61560;33.718;73.040;2022-10-17T17:13:43;36.50;;;15.38;;
73331;SDS011;61560;33.718;73.040;2022-10-17T17:18:38;40.55;;;18.80;;
73331;SDS011;61560;33.718;73.040;2022-10-17T17:21:06;36.35;;;16.67;;
73331;SDS011;61560;33.718;73.040;2022-10-17T17:23:38;43.03;;;16.67;;
73331;SDS011;61560;33.718;73.040;2022-10-17T17:26:10;37.05;;;17.02;;
73331;SDS011;61560;33.718;73.040;2022-10-17T17:28:38;35.50;;;16.55;;
73331;SDS011;61560;33.718;73.040;2022-10-17T17:31:06;45.28;;;16.35;;
73331;SDS011;61560;33.718;73.040;2022-10-17T17:33:38;44.95;;;17.45;;
73331;SDS011;61560;33.718;73.040;2022-10-17T17:36:06;37.47;;;16.45;;
73331;SDS011;61560;33.718;73.040;2022-10-17T17:38:34;36.40;;;16.98;;
73331;SDS011;61560;33.718;73.040;2022-10-17T17:41:01;42.00;;;16.45;;
73331;SDS011;61560;33.718;73.040;2022-10-17T17:43:29;33.90;;;15.82;;
73331;SDS011;61560;33.718;73.040;2022-10-17T17:45:55;32.65;;;14.93;;
73331;SDS011;61560;33.718;73.040;2022-10-17T17:48:22;34.97;;;15.82;;
73331;SDS011;61560;33.718;73.040;2022-10-17T17:50:48;39.20;;;15.45;;
73331;SDS011;61560;33.718;73.040;2022-10-17T17:53:15;33.72;;;15.30;;
73331;SDS011;61560;33.718;73.040;2022-10-17T17:55:43;43.00;;;16.75;;
73331;SDS011;61560;33.718;73.040;2022-10-17T17:58:10;32.28;;;15.35;;
73331;SDS011;61560;33.718;73.040;2022-10-17T18:00:37;39.25;;;16.70;;